Terminal Aerodrome Forecast
Issued by NWS Paducah, KY

Home | Current Version | Previous Version | Text Only | Print | Product List | Glossary On
Versions: 1 2 3 4 5 6 7 8 9 10 11 12 13 14 15 16 17 18 19 20 21 22 23
000
FTUS43 KPAH 270158 AAA
TAFPAH
TAF AMD
KPAH 270158Z 2702/2724 VRB03KT P6SM VCSH BKN150
     FM270245 13015G25KT P6SM VCTS SCT040CB BKN100
      TEMPO 2703/2706 3SM TSRA BKN025CB
     FM270600 00000KT 5SM BR FEW050 BKN100
     FM271300 17003KT P6SM FEW050 SCT100
     FM271700 19005KT P6SM SCT045=

USA.gov is the U.S. government's official web portal to all federal, state and local government web resources and services.